Jastrebac I + 6 Barz — YT2423 — position and weather

sailwx.info

Track history (hours):
 
Tides and Currents Weather Stations Pressure Air Temp Water Temp Dewpoint Dewpoint Depression Visibility Wind Speed Wind Dir Waves Ship Positions

Jastrebac I + 6 Barz

Last reported at 2017-Nov-24 08:54 UTC. Time now 2017-Nov-24 09:26 UTC.
Position N 45°14' E 019°46'.

Length 33 m; draft 2 m.

Type: Ship. MMSI: 279202423.

Date/timePositionNaut miles runAvg speedWind from/ knotsBaromVisibWave heightAir tempDewpointWater temp
2017-Nov-24 08:54N 45°14' E 019°46'0 0.0
2017-Nov-24 08:25N 45°14' E 019°46'0 0.2
2017-Nov-24 08:00N 45°14' E 019°46'0 0.8
2017-Nov-24 07:28N 45°14' E 019°46'3 3.9
2017-Nov-24 06:39N 45°14' E 019°51'1 2.5
2017-Nov-24 06:25N 45°14' E 019°51'2 2.2
2017-Nov-24 05:36N 45°15' E 019°53'0 0.1
2017-Nov-24 05:26N 45°15' E 019°54'2 2.4
2017-Nov-24 04:46N 45°15' E 019°52'3 7.1
2017-Nov-24 04:23N 45°13' E 019°48'2 5.0
2017-Nov-24 04:00N 45°14' E 019°46'0 0.4
2017-Nov-24 03:30N 45°14' E 019°46'0 0.1
2017-Nov-24 02:45N 45°14' E 019°46'0 0.0
2017-Nov-24 02:30N 45°14' E 019°46'0 0.0
2017-Nov-24 01:29N 45°14' E 019°46'0 0.0
2017-Nov-24 01:00N 45°14' E 019°46'0 0.0
2017-Nov-24 00:30N 45°14' E 019°46'0 0.0
2017-Nov-23 23:37N 45°14' E 019°46'0 0.1
2017-Nov-23 23:30N 45°14' E 019°46'0 0.1
2017-Nov-23 23:00N 45°14' E 019°46'0 0.1
2017-Nov-23 22:23N 45°14' E 019°46'1 1.8
2017-Nov-23 21:58N 45°13' E 019°47'2 2.5
2017-Nov-23 20:58N 45°14' E 019°50'2 2.3
2017-Nov-23 20:02N 45°16' E 019°52'113.4
2017-Nov-23 19:59N 45°16' E 019°52'1 1.3
2017-Nov-23 19:11N 45°15' E 019°54'0 0.0
2017-Nov-23 18:53N 45°15' E 019°54'1 1.9
2017-Nov-23 18:12N 45°15' E 019°55'0 0.8
2017-Nov-23 18:00N 45°14' E 019°55'1 2.3
2017-Nov-23 17:30N 45°13' E 019°56'2 3.0
2017-Nov-23 16:47N 45°12' E 019°58'1 1.3
2017-Nov-23 16:14N 45°11' E 019°58'1 2.3
2017-Nov-23 16:00N 45°11' E 019°59'1 2.4
2017-Nov-23 15:30N 45°11' E 020°01'1 2.3
2017-Nov-23 14:57N 45°10' E 020°02'1 2.1
2017-Nov-23 14:29N 45°10' E 020°04'1 2.1
2017-Nov-23 13:55N 45°10' E 020°05'1 2.4
2017-Nov-23 13:30N 45°10' E 020°07'2 2.1
2017-Nov-23 12:33N 45°11' E 020°10'0 5.1
2017-Nov-23 12:30N 45°11' E 020°10'1 2.0
2017-Nov-23 12:00N 45°11' E 020°11'1 2.1
2017-Nov-23 11:19N 45°10' E 020°13'4 2.3
2017-Nov-23 09:32N 45°07' E 020°17'0 2.3
2017-Nov-23 09:29N 45°07' E 020°17'1 2.4
2017-Nov-23 09:00N 45°06' E 020°18'3 2.2
2017-Nov-23 07:48N 45°04' E 020°20'1 2.3
2017-Nov-23 07:30N 45°04' E 020°21'1 2.4
2017-Nov-23 07:00N 45°03' E 020°21'1 2.6
2017-Nov-23 06:30N 45°01' E 020°22'1 2.1
2017-Nov-23 06:00N 45°00' E 020°21'1 1.9
2017-Nov-23 05:30N 44°60' E 020°20'1 2.3
2017-Nov-23 05:00N 44°60' E 020°18'1 2.5
2017-Nov-23 04:30N 44°59' E 020°17'1 2.5
2017-Nov-23 04:00N 44°57' E 020°18'1 2.8
2017-Nov-23 03:30N 44°56' E 020°19'1 2.8
2017-Nov-23 03:00N 44°55' E 020°20'1 2.6
2017-Nov-23 02:30N 44°54' E 020°21'1 2.6
2017-Nov-23 02:00N 44°53' E 020°22'1 2.6
2017-Nov-23 01:30N 44°52' E 020°23'1 2.6
2017-Nov-23 01:00N 44°51' E 020°24'1 2.7
2017-Nov-23 00:30N 44°51' E 020°26'1 2.8
2017-Nov-23 00:00N 44°50' E 020°28'1 2.6
2017-Nov-22 23:27N 44°50' E 020°30'2 2.7
2017-Nov-22 22:47N 44°50' E 020°32'1 2.7
2017-Nov-22 22:30N 44°51' E 020°33'1 2.8
2017-Nov-22 22:00N 44°51' E 020°35'1 2.8
2017-Nov-22 21:30N 44°51' E 020°37'1 2.7
2017-Nov-22 21:00N 44°50' E 020°38'1 2.6
2017-Nov-22 20:26N 44°49' E 020°38'1 2.9
2017-Nov-22 20:00N 44°48' E 020°38'3 2.8
2017-Nov-22 19:06N 44°45' E 020°38'  
2017-Nov-20 00:29N 45°15' E 019°52'4 7.5
2017-Nov-19 23:56N 45°14' E 019°46'0 0.3
2017-Nov-19 23:20N 45°14' E 019°46'0 0.1
2017-Nov-19 22:53N 45°14' E 019°46'0 0.0
2017-Nov-19 22:11N 45°14' E 019°46'0 0.0
2017-Nov-19 22:00N 45°14' E 019°46'0 0.0
2017-Nov-19 21:24N 45°14' E 019°46'0 0.0
2017-Nov-19 20:51N 45°14' E 019°46'0 0.0
2017-Nov-19 20:29N 45°14' E 019°46'0 0.0
2017-Nov-19 20:00N 45°14' E 019°46'0 0.0
2017-Nov-19 19:10N 45°14' E 019°46'0 0.1
2017-Nov-19 19:00N 45°14' E 019°46'0 0.2
2017-Nov-19 18:29N 45°14' E 019°46'1 0.9
2017-Nov-19 17:55N 45°14' E 019°46'1 2.3
2017-Nov-19 17:29N 45°13' E 019°48'2 2.6
2017-Nov-19 16:45N 45°14' E 019°50'0 1.7
2017-Nov-19 16:30N 45°14' E 019°51'1 2.5
2017-Nov-19 16:01N 45°15' E 019°51'1 1.8
2017-Nov-19 15:22N 45°16' E 019°53'1 2.2
2017-Nov-19 15:00N 45°15' E 019°54'1 1.7
2017-Nov-19 14:28N 45°15' E 019°55'1 2.3
2017-Nov-19 13:52N 45°14' E 019°56'2 2.3
2017-Nov-19 13:13N 45°12' E 019°57'1 2.2
2017-Nov-19 12:47N 45°12' E 019°58'2 2.3
2017-Nov-19 12:00N 45°11' E 019°60'1 2.5
2017-Nov-19 11:28N 45°10' E 020°02'1 2.5
2017-Nov-19 10:54N 45°10' E 020°04'1 1.2
2017-Nov-19 10:24N 45°10' E 020°04'2 2.3
2017-Nov-19 09:29N 45°10' E 020°07'1 1.5
2017-Nov-19 08:47N 45°11' E 020°09'1 2.5
2017-Nov-19 08:30N 45°11' E 020°10'1 2.1
2017-Nov-19 08:00N 45°11' E 020°11'2 2.0
2017-Nov-19 07:12N 45°10' E 020°13'0 2.2
2017-Nov-19 07:00N 45°10' E 020°14'2 2.1
2017-Nov-19 06:00N 45°09' E 020°16'2 2.2
2017-Nov-19 05:15N 45°07' E 020°17'1 2.3
2017-Nov-19 04:59N 45°07' E 020°18'3 2.2
2017-Nov-19 03:27N 45°04' E 020°20'1 2.3
2017-Nov-19 03:00N 45°03' E 020°21'1 2.3
2017-Nov-19 02:30N 45°02' E 020°22'1 2.2
2017-Nov-19 02:00N 45°01' E 020°22'1 1.8
2017-Nov-19 01:30N 45°00' E 020°21'1 1.8
2017-Nov-19 01:00N 44°60' E 020°20'1 2.1
2017-Nov-19 00:30N 44°60' E 020°18'1 2.3
2017-Nov-19 00:00N 44°59' E 020°17'1 2.3
2017-Nov-18 23:30N 44°58' E 020°17'1 2.4
2017-Nov-18 23:00N 44°57' E 020°18'1 2.5
2017-Nov-18 22:30N 44°56' E 020°19'1 2.4
2017-Nov-18 22:00N 44°55' E 020°20'1 2.4
2017-Nov-18 21:30N 44°54' E 020°21'1 2.2
2017-Nov-18 21:00N 44°53' E 020°22'1 2.3
2017-Nov-18 20:30N 44°52' E 020°23'1 2.4
2017-Nov-18 20:00N 44°51' E 020°25'1 2.5
2017-Nov-18 19:31N 44°51' E 020°26'1 2.5
2017-Nov-18 19:00N 44°50' E 020°28'1 2.4
2017-Nov-18 18:30N 44°50' E 020°29'1 2.6
2017-Nov-18 18:01N 44°50' E 020°31'1 2.6
2017-Nov-18 17:30N 44°50' E 020°33'1 2.7
2017-Nov-18 16:57N 44°51' E 020°35'1 2.6
2017-Nov-18 16:30N 44°51' E 020°36'1 2.5
2017-Nov-18 16:00N 44°51' E 020°38'1 2.7
2017-Nov-18 15:30N 44°50' E 020°39'1 2.7
2017-Nov-18 15:00N 44°48' E 020°38'2 3.1
2017-Nov-18 14:30N 44°47' E 020°38'1 2.6
2017-Nov-18 14:00N 44°46' E 020°38'1 2.6
2017-Nov-18 13:30N 44°45' E 020°39'1 2.7
2017-Nov-18 13:00N 44°44' E 020°41'1 2.8
2017-Nov-18 12:30N 44°42' E 020°42'1 2.7
2017-Nov-18 12:00N 44°42' E 020°43'1 2.8
2017-Nov-18 11:30N 44°40' E 020°44'9 2.6
2017-Nov-18 08:00N 44°42' E 020°57'2 0.4
2017-Nov-18 03:04N 44°43' E 020°60'0 0.0
2017-Nov-18 03:00N 44°43' E 020°60'0 0.0
2017-Nov-18 02:30N 44°43' E 020°60'0 0.0
2017-Nov-18 02:00N 44°43' E 020°60'0 0.5
2017-Nov-18 01:29N 44°43' E 020°59'0 0.1
2017-Nov-18 01:00N 44°43' E 020°59'0 0.0
2017-Nov-18 00:30N 44°43' E 020°59'0 0.0
2017-Nov-18 00:00N 44°43' E 020°59'0 0.0
2017-Nov-17 23:30N 44°43' E 020°59'0 0.0
2017-Nov-17 23:00N 44°43' E 020°59'0 0.0
2017-Nov-17 22:30N 44°43' E 020°59'0 0.0
2017-Nov-17 22:00N 44°43' E 020°59'0 0.0
2017-Nov-17 21:30N 44°43' E 020°59'0 0.2
2017-Nov-17 21:00N 44°43' E 020°59'0 0.7
2017-Nov-17 20:30N 44°43' E 020°60'0 0.7
2017-Nov-17 20:00N 44°43' E 020°59'0 0.0
2017-Nov-17 19:30N 44°43' E 020°59'0 0.0
2017-Nov-17 19:00N 44°43' E 020°59'0 0.0
2017-Nov-17 18:30N 44°43' E 020°59'0 0.0
2017-Nov-17 18:00N 44°43' E 020°59'0 0.0
2017-Nov-17 17:30N 44°43' E 020°59'0 0.3
2017-Nov-17 17:00N 44°43' E 020°59'0 0.4
2017-Nov-17 16:30N 44°43' E 020°60'0 0.0
2017-Nov-17 16:00N 44°43' E 020°60'0 0.0
2017-Nov-17 14:18N 44°43' E 020°60'0 1.1
2017-Nov-17 14:01N 44°43' E 020°59'0 0.7
2017-Nov-17 13:30N 44°43' E 020°60'0 0.0
2017-Nov-17 13:01N 44°43' E 020°60'0 0.0
2017-Nov-17 12:30N 44°43' E 020°60'0 0.0
2017-Nov-17 12:00N 44°43' E 020°60'0 0.0
2017-Nov-17 11:31N 44°43' E 020°60'0 0.0
2017-Nov-17 11:01N 44°43' E 020°60'0 0.8
2017-Nov-17 10:31N 44°43' E 020°59'0 0.9
2017-Nov-17 10:01N 44°43' E 020°60'0 0.0
2017-Nov-17 09:31N 44°43' E 020°60'0 0.0
2017-Nov-17 09:00N 44°43' E 020°60'0 0.0
2017-Nov-17 01:09N 44°43' E 020°60'7 5.1
2017-Nov-16 23:48N 44°40' E 020°51'2 6.5
2017-Nov-16 23:31N 44°39' E 020°49'3 6.2
2017-Nov-16 23:00N 44°40' E 020°44'3 6.3
2017-Nov-16 22:30N 44°43' E 020°42'3 6.1
2017-Nov-16 22:00N 44°45' E 020°39'3 5.8
2017-Nov-16 21:30N 44°48' E 020°38'3 5.8
2017-Nov-16 21:00N 44°51' E 020°38'3 5.4
2017-Nov-16 20:30N 44°51' E 020°34'3 6.1
2017-Nov-16 20:00N 44°50' E 020°31'3 6.1
2017-Nov-16 19:30N 44°50' E 020°26'3 6.2
2017-Nov-16 19:01N 44°52' E 020°23'3 5.9
2017-Nov-16 18:30N 44°54' E 020°20'3 5.5
2017-Nov-16 18:00N 44°57' E 020°18'3 5.9
2017-Nov-16 17:31N 44°60' E 020°18'1 1.2
2017-Nov-16 17:00N 44°60' E 020°19'0 0.4
2017-Nov-16 16:30N 44°60' E 020°19'3 5.1
2017-Nov-16 16:01N 45°01' E 020°22'3 6.5
2017-Nov-16 15:30N 45°04' E 020°20'3 6.8
2017-Nov-16 15:00N 45°07' E 020°17'3 6.6
2017-Nov-16 14:30N 45°10' E 020°14'5 6.0
2017-Nov-16 13:41N 45°10' E 020°08'1 7.8
2017-Nov-16 13:30N 45°10' E 020°06'4 6.4
2017-Nov-16 12:57N 45°11' E 020°01'3 6.2
2017-Nov-16 12:29N 45°12' E 019°57'3 6.6
2017-Nov-16 12:00N 45°15' E 019°55'1 1.2
2017-Nov-16 11:30N 45°15' E 019°54'0 0.2
2017-Nov-16 10:58N 45°15' E 019°54'2 4.8
2017-Nov-16 10:29N 45°14' E 019°51'4 8.0
2017-Nov-16 10:00N 45°14' E 019°46'0 0.3
2017-Nov-16 09:21N 45°14' E 019°46'0 0.0
2017-Nov-16 08:48N 45°14' E 019°46'0 0.0
2017-Nov-16 08:25N 45°14' E 019°46'0 0.0
2017-Nov-16 08:00N 45°14' E 019°46'0 0.1
2017-Nov-16 07:26N 45°14' E 019°46'0 0.1
2017-Nov-16 07:00N 45°14' E 019°46'0 0.0
2017-Nov-16 06:08N 45°14' E 019°46'1 3.1
2017-Nov-16 05:43N 45°13' E 019°48'1 4.5
2017-Nov-16 05:24N 45°13' E 019°50'2 4.4
2017-Nov-16 04:59N 45°15' E 019°52'2 3.1
2017-Nov-16 04:30N 45°16' E 019°53'0 0.5
2017-Nov-16 03:33N 45°16' E 019°52'0 1.3
2017-Nov-16 03:26N 45°16' E 019°52'2 5.8
2017-Nov-16 03:00N 45°14' E 019°50'3 6.5
2017-Nov-16 02:30N 45°14' E 019°46'0 0.0
2017-Nov-16 01:59N 45°14' E 019°46'0 0.1
2017-Nov-16 01:30N 45°14' E 019°46'0 0.0
2017-Nov-16 01:00N 45°14' E 019°46'0 0.0
2017-Nov-16 00:15N 45°14' E 019°46'0 0.0
2017-Nov-16 00:00N 45°14' E 019°46'0 0.0
2017-Nov-15 23:30N 45°14' E 019°46'0 0.0
2017-Nov-15 22:31N 45°14' E 019°46'0 0.1
2017-Nov-15 22:27N 45°14' E 019°46'0 0.0
2017-Nov-15 22:00N 45°14' E 019°46'0 0.0
2017-Nov-15 21:27N 45°14' E 019°46'0 0.0
2017-Nov-15 21:00N 45°14' E 019°46'0 0.0
2017-Nov-15 20:30N 45°14' E 019°46'0 0.0
2017-Nov-15 19:59N 45°14' E 019°46'0 0.1
2017-Nov-15 19:22N 45°14' E 019°46'0 0.7
2017-Nov-15 19:00N 45°14' E 019°46'2 3.4
2017-Nov-15 18:17N 45°13' E 019°50'1 2.1
2017-Nov-15 17:59N 45°14' E 019°50'1 2.5
2017-Nov-15 17:31N 45°15' E 019°52'2 2.3
2017-Nov-15 16:37N 45°15' E 019°54'0 0.3
2017-Nov-15 16:29N 45°15' E 019°54'0 0.3
2017-Nov-15 15:49N 45°15' E 019°54'0 0.2
2017-Nov-15 15:31N 45°15' E 019°54'3 4.0
2017-Nov-15 14:52N 45°14' E 019°51'2 6.3
2017-Nov-15 14:30N 45°13' E 019°48'2 3.2
2017-Nov-15 14:01N 45°14' E 019°46'0 0.0
2017-Nov-15 13:20N 45°14' E 019°46'0 0.1
2017-Nov-15 13:00N 45°14' E 019°46'0 0.2
2017-Nov-15 12:30N 45°14' E 019°46'0 0.0
2017-Nov-15 11:59N 45°14' E 019°46'0 0.0
2017-Nov-15 11:30N 45°14' E 019°46'0 0.0
2017-Nov-15 11:00N 45°14' E 019°46'0 0.0
2017-Nov-15 10:05N 45°14' E 019°46'0 0.0
2017-Nov-15 09:54N 45°14' E 019°46'0 0.0
2017-Nov-15 09:24N 45°14' E 019°46'0 0.0
2017-Nov-15 08:59N 45°14' E 019°46'0 0.1
2017-Nov-15 08:20N 45°14' E 019°46'0 0.2
2017-Nov-15 07:46N 45°14' E 019°46'0 0.0
2017-Nov-15 07:31N 45°14' E 019°46'0 0.0
2017-Nov-15 06:49N 45°14' E 019°46'0 0.0
2017-Nov-15 06:26N 45°14' E 019°46'0 0.0
2017-Nov-15 06:00N 45°14' E 019°46'0 0.0
2017-Nov-15 05:29N 45°14' E 019°46'0 0.0
2017-Nov-15 04:54N 45°14' E 019°46'0 0.0
2017-Nov-15 04:23N 45°14' E 019°46'0 0.0
2017-Nov-15 03:57N 45°14' E 019°46'0 0.1
2017-Nov-15 03:25N 45°14' E 019°46'3 2.3
2017-Nov-15 02:18N 45°13' E 019°49'1 3.0
2017-Nov-15 02:01N 45°14' E 019°51'3 2.7
2017-Nov-15 01:04N 45°16' E 019°52'0 2.9
2017-Nov-15 01:01N 45°16' E 019°53'1 2.8
2017-Nov-15 00:30N 45°15' E 019°54'0 0.3
2017-Nov-15 00:00N 45°15' E 019°55'2 2.0
2017-Nov-14 23:14N 45°14' E 019°55'0 2.2
2017-Nov-14 23:01N 45°13' E 019°56'1 2.3
2017-Nov-14 22:26N 45°12' E 019°57'2 2.7
2017-Nov-14 21:50N 45°11' E 019°59'1 2.0
2017-Nov-14 21:16N 45°11' E 020°00'1 2.6
2017-Nov-14 21:00N 45°10' E 020°01'1 2.1
2017-Nov-14 20:29N 45°10' E 020°03'2 2.2
2017-Nov-14 19:42N 45°10' E 020°05'1 2.3
2017-Nov-14 19:29N 45°10' E 020°06'1 1.7
2017-Nov-14 18:56N 45°10' E 020°07'2 2.3
2017-Nov-14 18:06N 45°11' E 020°10'0 0.3
2017-Nov-14 18:00N 45°11' E 020°10'1 2.1
2017-Nov-14 17:28N 45°11' E 020°11'1 1.9
2017-Nov-14 17:00N 45°11' E 020°12'1 2.1
2017-Nov-14 16:30N 45°10' E 020°14'1 2.1
2017-Nov-14 15:48N 45°09' E 020°15'1 2.1
2017-Nov-14 15:29N 45°09' E 020°16'1 2.3
2017-Nov-14 14:58N 45°08' E 020°17'1 2.4
2017-Nov-14 14:30N 45°07' E 020°18'3 2.1
2017-Nov-14 12:57N 45°04' E 020°20'1 2.4
2017-Nov-14 12:31N 45°03' E 020°21'1 2.5
2017-Nov-14 12:01N 45°02' E 020°22'1 2.3
2017-Nov-14 11:31N 45°01' E 020°22'1 1.9
2017-Nov-14 11:01N 45°00' E 020°21'1 2.2
2017-Nov-14 10:31N 44°60' E 020°20'1 2.5
2017-Nov-14 10:01N 44°59' E 020°18'1 2.4
2017-Nov-14 09:31N 44°58' E 020°17'1 2.2
2017-Nov-14 09:01N 44°57' E 020°18'  
Track history (hours):
 
Tides and Currents Weather Stations Pressure Air Temp Water Temp Dewpoint Dewpoint Depression Visibility Wind Speed Wind Dir Waves Ship Positions

Jastrebac I + 6 Barz

Last reported at 2017-Nov-24 08:54 UTC. Time now 2017-Nov-24 09:26 UTC.
Position N 45°14' E 019°46'.

Length 33 m; draft 2 m.

Type: Ship. MMSI: 279202423.

Date/timePositionNaut miles runAvg speedWind from/ knotsBaromVisibWave heightAir tempDewpointWater temp
2017-Nov-24 08:54N 45°14' E 019°46'0 0.0
2017-Nov-24 08:25N 45°14' E 019°46'0 0.2
2017-Nov-24 08:00N 45°14' E 019°46'0 0.8
2017-Nov-24 07:28N 45°14' E 019°46'3 3.9
2017-Nov-24 06:39N 45°14' E 019°51'1 2.5
2017-Nov-24 06:25N 45°14' E 019°51'2 2.2
2017-Nov-24 05:36N 45°15' E 019°53'0 0.1
2017-Nov-24 05:26N 45°15' E 019°54'2 2.4
2017-Nov-24 04:46N 45°15' E 019°52'3 7.1
2017-Nov-24 04:23N 45°13' E 019°48'2 5.0
2017-Nov-24 04:00N 45°14' E 019°46'0 0.4
2017-Nov-24 03:30N 45°14' E 019°46'0 0.1
2017-Nov-24 02:45N 45°14' E 019°46'0 0.0
2017-Nov-24 02:30N 45°14' E 019°46'0 0.0
2017-Nov-24 01:29N 45°14' E 019°46'0 0.0
2017-Nov-24 01:00N 45°14' E 019°46'0 0.0
2017-Nov-24 00:30N 45°14' E 019°46'0 0.0
2017-Nov-23 23:37N 45°14' E 019°46'0 0.1
2017-Nov-23 23:30N 45°14' E 019°46'0 0.1
2017-Nov-23 23:00N 45°14' E 019°46'0 0.1
2017-Nov-23 22:23N 45°14' E 019°46'1 1.8
2017-Nov-23 21:58N 45°13' E 019°47'2 2.5
2017-Nov-23 20:58N 45°14' E 019°50'2 2.3
2017-Nov-23 20:02N 45°16' E 019°52'113.4
2017-Nov-23 19:59N 45°16' E 019°52'1 1.3
2017-Nov-23 19:11N 45°15' E 019°54'0 0.0
2017-Nov-23 18:53N 45°15' E 019°54'1 1.9
2017-Nov-23 18:12N 45°15' E 019°55'0 0.8
2017-Nov-23 18:00N 45°14' E 019°55'1 2.3
2017-Nov-23 17:30N 45°13' E 019°56'2 3.0
2017-Nov-23 16:47N 45°12' E 019°58'1 1.3
2017-Nov-23 16:14N 45°11' E 019°58'1 2.3
2017-Nov-23 16:00N 45°11' E 019°59'1 2.4
2017-Nov-23 15:30N 45°11' E 020°01'1 2.3
2017-Nov-23 14:57N 45°10' E 020°02'1 2.1
2017-Nov-23 14:29N 45°10' E 020°04'1 2.1
2017-Nov-23 13:55N 45°10' E 020°05'1 2.4
2017-Nov-23 13:30N 45°10' E 020°07'2 2.1
2017-Nov-23 12:33N 45°11' E 020°10'0 5.1
2017-Nov-23 12:30N 45°11' E 020°10'1 2.0
2017-Nov-23 12:00N 45°11' E 020°11'1 2.1
2017-Nov-23 11:19N 45°10' E 020°13'4 2.3
2017-Nov-23 09:32N 45°07' E 020°17'0 2.3
2017-Nov-23 09:29N 45°07' E 020°17'1 2.4
2017-Nov-23 09:00N 45°06' E 020°18'3 2.2
2017-Nov-23 07:48N 45°04' E 020°20'1 2.3
2017-Nov-23 07:30N 45°04' E 020°21'1 2.4
2017-Nov-23 07:00N 45°03' E 020°21'1 2.6
2017-Nov-23 06:30N 45°01' E 020°22'1 2.1
2017-Nov-23 06:00N 45°00' E 020°21'1 1.9
2017-Nov-23 05:30N 44°60' E 020°20'1 2.3
2017-Nov-23 05:00N 44°60' E 020°18'1 2.5
2017-Nov-23 04:30N 44°59' E 020°17'1 2.5
2017-Nov-23 04:00N 44°57' E 020°18'1 2.8
2017-Nov-23 03:30N 44°56' E 020°19'1 2.8
2017-Nov-23 03:00N 44°55' E 020°20'1 2.6
2017-Nov-23 02:30N 44°54' E 020°21'1 2.6
2017-Nov-23 02:00N 44°53' E 020°22'1 2.6
2017-Nov-23 01:30N 44°52' E 020°23'1 2.6
2017-Nov-23 01:00N 44°51' E 020°24'1 2.7
2017-Nov-23 00:30N 44°51' E 020°26'1 2.8
2017-Nov-23 00:00N 44°50' E 020°28'1 2.6
2017-Nov-22 23:27N 44°50' E 020°30'2 2.7
2017-Nov-22 22:47N 44°50' E 020°32'1 2.7
2017-Nov-22 22:30N 44°51' E 020°33'1 2.8
2017-Nov-22 22:00N 44°51' E 020°35'1 2.8
2017-Nov-22 21:30N 44°51' E 020°37'1 2.7
2017-Nov-22 21:00N 44°50' E 020°38'1 2.6
2017-Nov-22 20:26N 44°49' E 020°38'1 2.9
2017-Nov-22 20:00N 44°48' E 020°38'3 2.8
2017-Nov-22 19:06N 44°45' E 020°38'  
2017-Nov-20 00:29N 45°15' E 019°52'4 7.5
2017-Nov-19 23:56N 45°14' E 019°46'0 0.3
2017-Nov-19 23:20N 45°14' E 019°46'0 0.1
2017-Nov-19 22:53N 45°14' E 019°46'0 0.0
2017-Nov-19 22:11N 45°14' E 019°46'0 0.0
2017-Nov-19 22:00N 45°14' E 019°46'0 0.0
2017-Nov-19 21:24N 45°14' E 019°46'0 0.0
2017-Nov-19 20:51N 45°14' E 019°46'0 0.0
2017-Nov-19 20:29N 45°14' E 019°46'0 0.0
2017-Nov-19 20:00N 45°14' E 019°46'0 0.0
2017-Nov-19 19:10N 45°14' E 019°46'0 0.1
2017-Nov-19 19:00N 45°14' E 019°46'0 0.2
2017-Nov-19 18:29N 45°14' E 019°46'1 0.9
2017-Nov-19 17:55N 45°14' E 019°46'1 2.3
2017-Nov-19 17:29N 45°13' E 019°48'2 2.6
2017-Nov-19 16:45N 45°14' E 019°50'0 1.7
2017-Nov-19 16:30N 45°14' E 019°51'1 2.5
2017-Nov-19 16:01N 45°15' E 019°51'1 1.8
2017-Nov-19 15:22N 45°16' E 019°53'1 2.2
2017-Nov-19 15:00N 45°15' E 019°54'1 1.7
2017-Nov-19 14:28N 45°15' E 019°55'1 2.3
2017-Nov-19 13:52N 45°14' E 019°56'2 2.3
2017-Nov-19 13:13N 45°12' E 019°57'1 2.2
2017-Nov-19 12:47N 45°12' E 019°58'2 2.3
2017-Nov-19 12:00N 45°11' E 019°60'1 2.5
2017-Nov-19 11:28N 45°10' E 020°02'1 2.5
2017-Nov-19 10:54N 45°10' E 020°04'1 1.2
2017-Nov-19 10:24N 45°10' E 020°04'2 2.3
2017-Nov-19 09:29N 45°10' E 020°07'1 1.5
2017-Nov-19 08:47N 45°11' E 020°09'1 2.5
2017-Nov-19 08:30N 45°11' E 020°10'1 2.1
2017-Nov-19 08:00N 45°11' E 020°11'2 2.0
2017-Nov-19 07:12N 45°10' E 020°13'0 2.2
2017-Nov-19 07:00N 45°10' E 020°14'2 2.1
2017-Nov-19 06:00N 45°09' E 020°16'2 2.2
2017-Nov-19 05:15N 45°07' E 020°17'1 2.3
2017-Nov-19 04:59N 45°07' E 020°18'3 2.2
2017-Nov-19 03:27N 45°04' E 020°20'1 2.3
2017-Nov-19 03:00N 45°03' E 020°21'1 2.3
2017-Nov-19 02:30N 45°02' E 020°22'1 2.2
2017-Nov-19 02:00N 45°01' E 020°22'1 1.8
2017-Nov-19 01:30N 45°00' E 020°21'1 1.8
2017-Nov-19 01:00N 44°60' E 020°20'1 2.1
2017-Nov-19 00:30N 44°60' E 020°18'1 2.3
2017-Nov-19 00:00N 44°59' E 020°17'1 2.3
2017-Nov-18 23:30N 44°58' E 020°17'1 2.4
2017-Nov-18 23:00N 44°57' E 020°18'1 2.5
2017-Nov-18 22:30N 44°56' E 020°19'1 2.4
2017-Nov-18 22:00N 44°55' E 020°20'1 2.4
2017-Nov-18 21:30N 44°54' E 020°21'1 2.2
2017-Nov-18 21:00N 44°53' E 020°22'1 2.3
2017-Nov-18 20:30N 44°52' E 020°23'1 2.4
2017-Nov-18 20:00N 44°51' E 020°25'1 2.5
2017-Nov-18 19:31N 44°51' E 020°26'1 2.5
2017-Nov-18 19:00N 44°50' E 020°28'1 2.4
2017-Nov-18 18:30N 44°50' E 020°29'1 2.6
2017-Nov-18 18:01N 44°50' E 020°31'1 2.6
2017-Nov-18 17:30N 44°50' E 020°33'1 2.7
2017-Nov-18 16:57N 44°51' E 020°35'1 2.6
2017-Nov-18 16:30N 44°51' E 020°36'1 2.5
2017-Nov-18 16:00N 44°51' E 020°38'1 2.7
2017-Nov-18 15:30N 44°50' E 020°39'1 2.7
2017-Nov-18 15:00N 44°48' E 020°38'2 3.1
2017-Nov-18 14:30N 44°47' E 020°38'1 2.6
2017-Nov-18 14:00N 44°46' E 020°38'1 2.6
2017-Nov-18 13:30N 44°45' E 020°39'1 2.7
2017-Nov-18 13:00N 44°44' E 020°41'1 2.8
2017-Nov-18 12:30N 44°42' E 020°42'1 2.7
2017-Nov-18 12:00N 44°42' E 020°43'1 2.8
2017-Nov-18 11:30N 44°40' E 020°44'9 2.6
2017-Nov-18 08:00N 44°42' E 020°57'2 0.4
2017-Nov-18 03:04N 44°43' E 020°60'0 0.0
2017-Nov-18 03:00N 44°43' E 020°60'0 0.0
2017-Nov-18 02:30N 44°43' E 020°60'0 0.0
2017-Nov-18 02:00N 44°43' E 020°60'0 0.5
2017-Nov-18 01:29N 44°43' E 020°59'0 0.1
2017-Nov-18 01:00N 44°43' E 020°59'0 0.0
2017-Nov-18 00:30N 44°43' E 020°59'0 0.0
2017-Nov-18 00:00N 44°43' E 020°59'0 0.0
2017-Nov-17 23:30N 44°43' E 020°59'0 0.0
2017-Nov-17 23:00N 44°43' E 020°59'0 0.0
2017-Nov-17 22:30N 44°43' E 020°59'0 0.0
2017-Nov-17 22:00N 44°43' E 020°59'0 0.0
2017-Nov-17 21:30N 44°43' E 020°59'0 0.2
2017-Nov-17 21:00N 44°43' E 020°59'0 0.7
2017-Nov-17 20:30N 44°43' E 020°60'0 0.7
2017-Nov-17 20:00N 44°43' E 020°59'0 0.0
2017-Nov-17 19:30N 44°43' E 020°59'0 0.0
2017-Nov-17 19:00N 44°43' E 020°59'0 0.0
2017-Nov-17 18:30N 44°43' E 020°59'0 0.0
2017-Nov-17 18:00N 44°43' E 020°59'0 0.0
2017-Nov-17 17:30N 44°43' E 020°59'0 0.3
2017-Nov-17 17:00N 44°43' E 020°59'0 0.4
2017-Nov-17 16:30N 44°43' E 020°60'0 0.0
2017-Nov-17 16:00N 44°43' E 020°60'0 0.0
2017-Nov-17 14:18N 44°43' E 020°60'0 1.1
2017-Nov-17 14:01N 44°43' E 020°59'0 0.7
2017-Nov-17 13:30N 44°43' E 020°60'0 0.0
2017-Nov-17 13:01N 44°43' E 020°60'0 0.0
2017-Nov-17 12:30N 44°43' E 020°60'0 0.0
2017-Nov-17 12:00N 44°43' E 020°60'0 0.0
2017-Nov-17 11:31N 44°43' E 020°60'0 0.0
2017-Nov-17 11:01N 44°43' E 020°60'0 0.8
2017-Nov-17 10:31N 44°43' E 020°59'0 0.9
2017-Nov-17 10:01N 44°43' E 020°60'0 0.0
2017-Nov-17 09:31N 44°43' E 020°60'0 0.0
2017-Nov-17 09:00N 44°43' E 020°60'0 0.0
2017-Nov-17 01:09N 44°43' E 020°60'7 5.1
2017-Nov-16 23:48N 44°40' E 020°51'2 6.5
2017-Nov-16 23:31N 44°39' E 020°49'3 6.2
2017-Nov-16 23:00N 44°40' E 020°44'3 6.3
2017-Nov-16 22:30N 44°43' E 020°42'3 6.1
2017-Nov-16 22:00N 44°45' E 020°39'3 5.8
2017-Nov-16 21:30N 44°48' E 020°38'3 5.8
2017-Nov-16 21:00N 44°51' E 020°38'3 5.4
2017-Nov-16 20:30N 44°51' E 020°34'3 6.1
2017-Nov-16 20:00N 44°50' E 020°31'3 6.1
2017-Nov-16 19:30N 44°50' E 020°26'3 6.2
2017-Nov-16 19:01N 44°52' E 020°23'3 5.9
2017-Nov-16 18:30N 44°54' E 020°20'3 5.5
2017-Nov-16 18:00N 44°57' E 020°18'3 5.9
2017-Nov-16 17:31N 44°60' E 020°18'1 1.2
2017-Nov-16 17:00N 44°60' E 020°19'0 0.4
2017-Nov-16 16:30N 44°60' E 020°19'3 5.1
2017-Nov-16 16:01N 45°01' E 020°22'3 6.5
2017-Nov-16 15:30N 45°04' E 020°20'3 6.8
2017-Nov-16 15:00N 45°07' E 020°17'3 6.6
2017-Nov-16 14:30N 45°10' E 020°14'5 6.0
2017-Nov-16 13:41N 45°10' E 020°08'1 7.8
2017-Nov-16 13:30N 45°10' E 020°06'4 6.4
2017-Nov-16 12:57N 45°11' E 020°01'3 6.2
2017-Nov-16 12:29N 45°12' E 019°57'3 6.6
2017-Nov-16 12:00N 45°15' E 019°55'1 1.2
2017-Nov-16 11:30N 45°15' E 019°54'0 0.2
2017-Nov-16 10:58N 45°15' E 019°54'2 4.8
2017-Nov-16 10:29N 45°14' E 019°51'4 8.0
2017-Nov-16 10:00N 45°14' E 019°46'0 0.3
2017-Nov-16 09:21N 45°14' E 019°46'0 0.0
2017-Nov-16 08:48N 45°14' E 019°46'0 0.0
2017-Nov-16 08:25N 45°14' E 019°46'0 0.0
2017-Nov-16 08:00N 45°14' E 019°46'0 0.1
2017-Nov-16 07:26N 45°14' E 019°46'0 0.1
2017-Nov-16 07:00N 45°14' E 019°46'0 0.0
2017-Nov-16 06:08N 45°14' E 019°46'1 3.1
2017-Nov-16 05:43N 45°13' E 019°48'1 4.5
2017-Nov-16 05:24N 45°13' E 019°50'2 4.4
2017-Nov-16 04:59N 45°15' E 019°52'2 3.1
2017-Nov-16 04:30N 45°16' E 019°53'0 0.5
2017-Nov-16 03:33N 45°16' E 019°52'0 1.3
2017-Nov-16 03:26N 45°16' E 019°52'2 5.8
2017-Nov-16 03:00N 45°14' E 019°50'3 6.5
2017-Nov-16 02:30N 45°14' E 019°46'0 0.0
2017-Nov-16 01:59N 45°14' E 019°46'0 0.1
2017-Nov-16 01:30N 45°14' E 019°46'0 0.0
2017-Nov-16 01:00N 45°14' E 019°46'0 0.0
2017-Nov-16 00:15N 45°14' E 019°46'0 0.0
2017-Nov-16 00:00N 45°14' E 019°46'0 0.0
2017-Nov-15 23:30N 45°14' E 019°46'0 0.0
2017-Nov-15 22:31N 45°14' E 019°46'0 0.1
2017-Nov-15 22:27N 45°14' E 019°46'0 0.0
2017-Nov-15 22:00N 45°14' E 019°46'0 0.0
2017-Nov-15 21:27N 45°14' E 019°46'0 0.0
2017-Nov-15 21:00N 45°14' E 019°46'0 0.0
2017-Nov-15 20:30N 45°14' E 019°46'0 0.0
2017-Nov-15 19:59N 45°14' E 019°46'0 0.1
2017-Nov-15 19:22N 45°14' E 019°46'0 0.7
2017-Nov-15 19:00N 45°14' E 019°46'2 3.4
2017-Nov-15 18:17N 45°13' E 019°50'1 2.1
2017-Nov-15 17:59N 45°14' E 019°50'1 2.5
2017-Nov-15 17:31N 45°15' E 019°52'2 2.3
2017-Nov-15 16:37N 45°15' E 019°54'0 0.3
2017-Nov-15 16:29N 45°15' E 019°54'0 0.3
2017-Nov-15 15:49N 45°15' E 019°54'0 0.2
2017-Nov-15 15:31N 45°15' E 019°54'3 4.0
2017-Nov-15 14:52N 45°14' E 019°51'2 6.3
2017-Nov-15 14:30N 45°13' E 019°48'2 3.2
2017-Nov-15 14:01N 45°14' E 019°46'0 0.0
2017-Nov-15 13:20N 45°14' E 019°46'0 0.1
2017-Nov-15 13:00N 45°14' E 019°46'0 0.2
2017-Nov-15 12:30N 45°14' E 019°46'0 0.0
2017-Nov-15 11:59N 45°14' E 019°46'0 0.0
2017-Nov-15 11:30N 45°14' E 019°46'0 0.0
2017-Nov-15 11:00N 45°14' E 019°46'0 0.0
2017-Nov-15 10:05N 45°14' E 019°46'0 0.0
2017-Nov-15 09:54N 45°14' E 019°46'0 0.0
2017-Nov-15 09:24N 45°14' E 019°46'0 0.0
2017-Nov-15 08:59N 45°14' E 019°46'0 0.1
2017-Nov-15 08:20N 45°14' E 019°46'0 0.2
2017-Nov-15 07:46N 45°14' E 019°46'0 0.0
2017-Nov-15 07:31N 45°14' E 019°46'0 0.0
2017-Nov-15 06:49N 45°14' E 019°46'0 0.0
2017-Nov-15 06:26N 45°14' E 019°46'0 0.0
2017-Nov-15 06:00N 45°14' E 019°46'0 0.0
2017-Nov-15 05:29N 45°14' E 019°46'0 0.0
2017-Nov-15 04:54N 45°14' E 019°46'0 0.0
2017-Nov-15 04:23N 45°14' E 019°46'0 0.0
2017-Nov-15 03:57N 45°14' E 019°46'0 0.1
2017-Nov-15 03:25N 45°14' E 019°46'3 2.3
2017-Nov-15 02:18N 45°13' E 019°49'1 3.0
2017-Nov-15 02:01N 45°14' E 019°51'3 2.7
2017-Nov-15 01:04N 45°16' E 019°52'0 2.9
2017-Nov-15 01:01N 45°16' E 019°53'1 2.8
2017-Nov-15 00:30N 45°15' E 019°54'0 0.3
2017-Nov-15 00:00N 45°15' E 019°55'2 2.0
2017-Nov-14 23:14N 45°14' E 019°55'0 2.2
2017-Nov-14 23:01N 45°13' E 019°56'1 2.3
2017-Nov-14 22:26N 45°12' E 019°57'2 2.7
2017-Nov-14 21:50N 45°11' E 019°59'1 2.0
2017-Nov-14 21:16N 45°11' E 020°00'1 2.6
2017-Nov-14 21:00N 45°10' E 020°01'1 2.1
2017-Nov-14 20:29N 45°10' E 020°03'2 2.2
2017-Nov-14 19:42N 45°10' E 020°05'1 2.3
2017-Nov-14 19:29N 45°10' E 020°06'1 1.7
2017-Nov-14 18:56N 45°10' E 020°07'2 2.3
2017-Nov-14 18:06N 45°11' E 020°10'0 0.3
2017-Nov-14 18:00N 45°11' E 020°10'1 2.1
2017-Nov-14 17:28N 45°11' E 020°11'1 1.9
2017-Nov-14 17:00N 45°11' E 020°12'1 2.1
2017-Nov-14 16:30N 45°10' E 020°14'1 2.1
2017-Nov-14 15:48N 45°09' E 020°15'1 2.1
2017-Nov-14 15:29N 45°09' E 020°16'1 2.3
2017-Nov-14 14:58N 45°08' E 020°17'1 2.4
2017-Nov-14 14:30N 45°07' E 020°18'3 2.1
2017-Nov-14 12:57N 45°04' E 020°20'1 2.4
2017-Nov-14 12:31N 45°03' E 020°21'1 2.5
2017-Nov-14 12:01N 45°02' E 020°22'1 2.3
2017-Nov-14 11:31N 45°01' E 020°22'1 1.9
2017-Nov-14 11:01N 45°00' E 020°21'1 2.2
2017-Nov-14 10:31N 44°60' E 020°20'1 2.5
2017-Nov-14 10:01N 44°59' E 020°18'1 2.4
2017-Nov-14 09:31N 44°58' E 020°17'1 2.2
2017-Nov-14 09:01N 44°57' E 020°18'  

Dump ship's entire track history